Time;durP1;ratioP1;P1;durP2;ratioP2;P2;SDS_P1;SDS_P2;PMS_P1;PMS_P2;Temp;Humidity;BMP_temperature;BMP_pressure;BME280_temperature;BME280_humidity;BME280_pressure;Samples;Min_cycle;Max_cycle;Signal;HPM_P1;HPM_P2
2020/12/09 00:00:13;;;;;;;43.67;22.77;;;;;;;4.41;65.81;100479.63;701561;28;45344;-62
2020/12/09 00:00:34;;;;;;;43.28;22.45;;;;;;;4.40;65.83;100475.25;701641;28;24276;-61
2020/12/09 00:00:55;;;;;;;41.58;22.23;;;;;;;4.41;65.72;100487.66;701006;28;45367;-63
2020/12/09 00:01:17;;;;;;;40.05;22.30;;;;;;;4.42;65.73;100484.81;702527;28;21536;-63
2020/12/09 00:01:38;;;;;;;39.05;21.35;;;;;;;4.43;65.74;100486.50;701309;28;46330;-63
2020/12/09 00:01:59;;;;;;;40.70;21.63;;;;;;;4.44;65.74;100487.34;701092;28;22514;-63
2020/12/09 00:02:21;;;;;;;44.35;23.08;;;;;;;4.40;65.63;100480.59;701705;28;22474;-63
2020/12/09 00:02:42;;;;;;;42.83;23.25;;;;;;;4.41;65.76;100484.97;702829;28;21549;-63
2020/12/09 00:03:05;;;;;;;39.95;21.73;;;;;;;4.42;65.68;100481.28;700970;28;67396;-63
2020/12/09 00:03:26;;;;;;;43.10;22.45;;;;;;;4.43;65.72;100481.16;700171;28;67496;-62
2020/12/09 00:03:48;;;;;;;42.05;22.10;;;;;;;4.43;65.78;100478.47;702592;28;22201;-61
2020/12/09 00:04:10;;;;;;;39.50;21.73;;;;;;;4.43;66.08;100483.00;702419;28;23420;-63
2020/12/09 00:04:31;;;;;;;42.08;22.13;;;;;;;4.43;65.79;100478.47;700980;28;69448;-63
2020/12/09 00:04:53;;;;;;;41.72;22.63;;;;;;;4.44;65.68;100476.66;703669;28;10174;-63
2020/12/09 00:05:15;;;;;;;43.20;22.35;;;;;;;4.43;65.70;100481.16;701671;28;43944;-63
2020/12/09 00:05:37;;;;;;;44.30;22.88;;;;;;;4.42;65.72;100481.28;701211;28;44404;-63
2020/12/09 00:05:58;;;;;;;45.13;23.45;;;;;;;4.42;65.67;100481.28;700576;28;44387;-63
2020/12/09 00:06:19;;;;;;;41.88;22.73;;;;;;;4.41;65.98;100482.28;701233;28;22400;-62
2020/12/09 00:06:41;;;;;;;37.33;21.70;;;;;;;4.40;65.73;100481.44;701580;28;22412;-63
2020/12/09 00:07:03;;;;;;;39.47;21.50;;;;;;;4.38;65.72;100474.56;700215;28;47180;-63
2020/12/09 00:07:24;;;;;;;38.47;21.88;;;;;;;4.41;65.86;100482.28;701715;28;1922;-63
2020/12/09 00:07:45;;;;;;;40.22;22.33;;;;;;;4.41;65.79;100485.81;701786;28;20438;-63
2020/12/09 00:08:08;;;;;;;41.92;22.15;;;;;;;4.43;65.87;100488.34;702656;28;22190;-62
2020/12/09 00:08:33;;;;;;;42.03;22.33;;;;;;;4.44;65.92;100484.69;701056;28;62058;-62
2020/12/09 00:08:54;;;;;;;41.30;22.55;;;;;;;4.42;65.43;100479.47;701344;28;46302;-63
2020/12/09 00:09:18;;;;;;;41.03;22.45;;;;;;;4.42;65.84;100483.97;702273;28;23531;-63
2020/12/09 00:09:41;;;;;;;42.53;22.75;;;;;;;4.43;65.81;100488.34;699612;28;92179;-62
2020/12/09 00:10:03;;;;;;;42.00;22.02;;;;;;;4.42;65.75;100483.97;701319;28;46383;-63
2020/12/09 00:10:24;;;;;;;41.38;21.63;;;;;;;4.43;65.68;100486.50;699574;28;68481;-63
2020/12/09 00:10:45;;;;;;;44.35;23.23;;;;;;;4.43;65.97;100483.00;702368;28;21630;-63
2020/12/09 00:11:08;;;;;;;41.00;22.52;;;;;;;4.43;65.84;100485.66;702375;28;22544;-60
2020/12/09 00:11:29;;;;;;;42.65;22.15;;;;;;;4.43;65.88;100493.69;701286;28;68199;-63
2020/12/09 00:11:52;;;;;;;43.58;21.95;;;;;;;4.43;66.10;100485.66;701506;28;22469;-62
2020/12/09 00:12:14;;;;;;;40.22;21.63;;;;;;;4.41;65.71;100484.97;699923;28;53959;-63
2020/12/09 00:12:37;;;;;;;40.17;21.77;;;;;;;4.41;65.72;100485.81;702251;28;46260;-61
2020/12/09 00:12:58;;;;;;;40.47;22.27;;;;;;;4.42;65.83;100484.81;700283;28;69448;-63
2020/12/09 00:13:19;;;;;;;43.45;22.90;;;;;;;4.40;65.72;100481.44;702087;28;22391;-62
2020/12/09 00:13:40;;;;;;;42.28;21.45;;;;;;;4.38;65.76;100480.75;701937;28;23493;-62
2020/12/09 00:14:02;;;;;;;44.05;22.23;;;;;;;4.39;65.79;100479.75;702369;28;21597;-63
2020/12/09 00:14:24;;;;;;;40.95;21.85;;;;;;;4.38;65.84;100478.06;701434;28;44364;-62
2020/12/09 00:14:45;;;;;;;42.80;22.55;;;;;;;4.38;65.95;100475.41;700882;28;47292;-63
2020/12/09 00:15:07;;;;;;;42.50;22.55;;;;;;;4.39;65.93;100479.75;702188;28;22391;-62
2020/12/09 00:15:28;;;;;;;44.17;22.48;;;;;;;4.38;65.90;100478.06;701200;28;46290;-63
2020/12/09 00:15:50;;;;;;;43.05;22.02;;;;;;;4.39;65.85;100485.13;702671;28;12748;-62
2020/12/09 00:16:11;;;;;;;41.50;22.17;;;;;;;4.37;66.09;100480.88;701201;28;46363;-63
2020/12/09 00:16:33;;;;;;;38.63;21.52;;;;;;;4.39;65.80;100484.25;702068;28;22203;-62
2020/12/09 00:16:55;;;;;;;39.30;21.48;;;;;;;4.36;65.68;100480.06;701118;28;45387;-63
2020/12/09 00:17:16;;;;;;;41.03;22.10;;;;;;;4.37;65.91;100486.22;701946;28;46287;-63
2020/12/09 00:17:37;;;;;;;42.92;22.42;;;;;;;4.37;65.97;100483.56;702695;28;22420;-63
2020/12/09 00:17:59;;;;;;;41.35;22.30;;;;;;;4.36;65.78;100479.19;702621;28;22438;-63
2020/12/09 00:18:20;;;;;;;41.25;22.15;;;;;;;4.32;66.07;100482.16;700293;28;45280;-62
2020/12/09 00:18:41;;;;;;;40.65;22.25;;;;;;;4.33;65.95;100485.69;702600;28;20863;-63
2020/12/09 00:19:03;;;;;;;41.50;22.60;;;;;;;4.33;65.92;100483.00;702173;28;22406;-63
2020/12/09 00:19:25;;;;;;;38.80;22.15;;;;;;;4.32;66.03;100481.31;701370;28;46384;-61
2020/12/09 00:19:46;;;;;;;38.72;21.65;;;;;;;4.29;66.10;100473.56;701472;28;46285;-63
2020/12/09 00:20:08;;;;;;;39.05;21.83;;;;;;;4.31;66.14;100487.63;702310;28;22415;-63
2020/12/09 00:20:30;;;;;;;42.47;22.38;;;;;;;4.30;66.26;100486.81;700795;28;45505;-63
2020/12/09 00:20:51;;;;;;;41.65;22.63;;;;;;;4.31;66.11;100482.28;702653;28;22129;-63
2020/12/09 00:21:16;;;;;;;42.38;22.13;;;;;;;4.30;66.07;100481.44;702358;28;23470;-62
2020/12/09 00:21:38;;;;;;;39.22;21.67;;;;;;;4.32;66.23;100486.66;700899;28;58854;-60
2020/12/09 00:21:59;;;;;;;42.05;21.98;;;;;;;4.31;66.19;100477.81;701845;28;46706;-61
2020/12/09 00:22:23;;;;;;;45.08;22.63;;;;;;;4.33;66.22;100478.50;701968;28;23341;-61
2020/12/09 00:22:45;;;;;;;41.63;21.70;;;;;;;4.32;66.26;100478.63;699306;28;93073;-62
2020/12/09 00:23:06;;;;;;;37.45;21.10;;;;;;;4.32;66.31;100486.66;700748;28;44437;-62
2020/12/09 00:23:27;;;;;;;41.42;22.35;;;;;;;4.31;66.30;100476.94;702747;28;21546;-62
2020/12/09 00:23:50;;;;;;;39.20;22.20;;;;;;;4.31;66.31;100485.81;702257;28;47150;-61
2020/12/09 00:24:12;;;;;;;40.38;22.02;;;;;;;4.31;66.31;100480.47;701653;28;46435;-63
2020/12/09 00:24:34;;;;;;;42.58;22.23;;;;;;;4.32;66.30;100484.81;700885;28;69298;-63
2020/12/09 00:24:55;;;;;;;39.40;22.02;;;;;;;4.34;66.45;100484.69;701776;28;23503;-62
2020/12/09 00:25:16;;;;;;;41.33;22.00;;;;;;;4.35;66.29;100489.06;701833;28;23662;-62
2020/12/09 00:25:37;;;;;;;44.45;22.10;;;;;;;4.36;66.29;100482.72;703136;28;23424;-62
2020/12/09 00:25:59;;;;;;;44.42;22.67;;;;;;;4.36;66.18;100485.41;702241;28;12405;-63
2020/12/09 00:26:21;;;;;;;41.25;23.35;;;;;;;4.37;66.23;100484.41;700593;28;46277;-63
2020/12/09 00:26:43;;;;;;;40.72;22.60;;;;;;;4.38;66.27;100482.59;701505;28;45219;-63
2020/12/09 00:27:04;;;;;;;40.97;22.08;;;;;;;4.37;66.25;100489.75;699639;28;17146;-62
2020/12/09 00:27:25;;;;;;;39.75;22.13;;;;;;;4.38;66.17;100488.75;698634;28;19077;-62
2020/12/09 00:27:47;;;;;;;40.22;22.55;;;;;;;4.38;66.15;100486.09;700019;28;11605;-62
2020/12/09 00:28:09;;;;;;;43.88;22.88;;;;;;;4.38;66.14;100486.09;699488;28;19573;-62
2020/12/09 00:28:30;;;;;;;38.72;21.75;;;;;;;4.39;66.16;100490.47;698406;28;45318;-62
2020/12/09 00:28:52;;;;;;;40.45;21.98;;;;;;;4.40;66.00;100488.63;699802;28;22403;-62
2020/12/09 00:29:14;;;;;;;41.53;21.25;;;;;;;4.39;66.09;100490.47;700190;28;69130;-61
2020/12/09 00:29:35;;;;;;;39.63;21.73;;;;;;;4.41;66.05;100488.47;701642;28;21544;-61
2020/12/09 00:29:57;;;;;;;43.03;23.13;;;;;;;4.41;66.06;100484.97;702143;28;46314;-63
2020/12/09 00:30:18;;;;;;;45.25;23.02;;;;;;;4.39;65.88;100482.44;701807;28;21371;-62
2020/12/09 00:30:39;;;;;;;46.42;22.55;;;;;;;4.38;66.18;100479.91;701788;28;22102;-62
2020/12/09 00:31:01;;;;;;;46.90;22.42;;;;;;;4.37;65.84;100481.72;702043;28;22331;-62
2020/12/09 00:31:25;;;;;;;43.33;22.73;;;;;;;4.38;66.10;100482.59;701290;28;44390;-62
2020/12/09 00:31:46;;;;;;;41.70;22.50;;;;;;;4.39;66.08;100477.09;700013;28;90758;-61
2020/12/09 00:32:07;;;;;;;42.60;22.63;;;;;;;4.39;66.09;100479.75;702253;28;22473;-60
2020/12/09 00:32:29;;;;;;;42.20;22.25;;;;;;;4.37;66.00;100472.88;701648;28;22557;-62
2020/12/09 00:32:50;;;;;;;40.65;22.38;;;;;;;4.39;66.05;100478.91;699911;28;68338;-62
2020/12/09 00:33:12;;;;;;;39.75;21.83;;;;;;;4.41;66.11;100474.28;701789;28;23383;-63
2020/12/09 00:33:33;;;;;;;43.45;22.55;;;;;;;4.42;66.00;100473.25;701724;28;19406;-63
2020/12/09 00:33:55;;;;;;;42.00;22.98;;;;;;;4.42;66.03;100478.63;701394;28;44281;-63
2020/12/09 00:34:17;;;;;;;40.15;22.17;;;;;;;4.44;66.00;100468.63;703352;28;19969;-62
2020/12/09 00:34:38;;;;;;;40.67;21.95;;;;;;;4.43;66.09;100467.78;702049;28;22365;-63
2020/12/09 00:34:59;;;;;;;40.65;22.25;;;;;;;4.43;65.98;100473.13;701495;28;23429;-61
2020/12/09 00:35:21;;;;;;;38.97;21.20;;;;;;;4.44;65.96;100471.31;701716;28;46334;-62
2020/12/09 00:35:43;;;;;;;41.33;22.58;;;;;;;4.44;66.01;100471.31;701868;28;46394;-61
2020/12/09 00:36:04;;;;;;;43.67;22.10;;;;;;;4.43;65.93;100474.97;702864;28;1348;-62
2020/12/09 00:36:26;;;;;;;41.60;21.85;;;;;;;4.43;65.93;100469.63;702898;28;23452;-63
2020/12/09 00:36:47;;;;;;;38.80;21.80;;;;;;;4.44;65.87;100479.34;701623;28;23465;-63
2020/12/09 00:37:09;;;;;;;41.92;22.92;;;;;;;4.43;65.88;100483.81;700891;28;46339;-62
2020/12/09 00:37:30;;;;;;;41.42;22.50;;;;;;;4.41;65.88;100475.09;701340;28;21549;-63
2020/12/09 00:37:51;;;;;;;40.67;21.67;;;;;;;4.43;65.95;100480.31;702026;28;21521;-63
2020/12/09 00:38:13;;;;;;;43.47;23.70;;;;;;;4.43;66.06;100483.00;701062;28;47279;-64
2020/12/09 00:38:34;;;;;;;43.83;23.15;;;;;;;4.41;65.82;100477.78;701179;28;46777;-63
2020/12/09 00:38:56;;;;;;;42.92;23.02;;;;;;;4.42;65.75;100482.16;702118;28;23471;-63
2020/12/09 00:39:17;;;;;;;39.67;21.92;;;;;;;4.45;66.06;100481.00;700945;28;46305;-63
2020/12/09 00:39:39;;;;;;;40.72;21.90;;;;;;;4.44;66.06;100482.00;701956;28;23468;-63
2020/12/09 00:40:00;;;;;;;40.55;22.27;;;;;;;4.46;65.89;100480.03;701767;28;44384;-63
2020/12/09 00:40:22;;;;;;;40.38;22.05;;;;;;;4.44;65.83;100482.84;702298;28;21549;-62
2020/12/09 00:40:44;;;;;;;42.70;22.40;;;;;;;4.45;65.92;100481.88;701952;28;23740;-63
2020/12/09 00:41:06;;;;;;;40.20;22.10;;;;;;;4.43;65.79;100478.47;700804;28;70274;-63
2020/12/09 00:41:28;;;;;;;40.28;22.83;;;;;;;4.44;65.82;100477.50;701873;28;1338;-62
2020/12/09 00:41:50;;;;;;;39.13;22.58;;;;;;;4.44;65.98;100484.69;701178;28;52891;-61
2020/12/09 00:42:11;;;;;;;40.95;22.52;;;;;;;4.42;65.92;100475.94;698982;28;8783;-63
2020/12/09 00:42:33;;;;;;;45.28;23.30;;;;;;;4.40;65.94;100480.59;699329;28;12644;-63
2020/12/09 00:42:54;;;;;;;42.28;22.00;;;;;;;4.41;66.04;100474.28;698401;28;45265;-63
2020/12/09 00:43:16;;;;;;;43.25;21.58;;;;;;;4.39;66.05;100470.88;698749;28;22401;-63
2020/12/09 00:43:37;;;;;;;42.13;21.83;;;;;;;4.39;66.10;100477.09;698766;28;44379;-63
2020/12/09 00:43:58;;;;;;;43.40;22.60;;;;;;;4.38;66.04;100472.72;700592;28;20071;-62
2020/12/09 00:44:19;;;;;;;43.35;23.02;;;;;;;4.37;66.06;100475.53;701034;28;44389;-63
2020/12/09 00:44:41;;;;;;;43.53;23.17;;;;;;;4.35;66.10;100473.00;699682;28;9013;-62
2020/12/09 00:45:03;;;;;;;39.95;22.00;;;;;;;4.35;66.04;100478.34;698536;28;44303;-62
2020/12/09 00:45:24;;;;;;;41.33;22.30;;;;;;;4.36;66.08;100479.19;699375;28;23454;-62
2020/12/09 00:45:45;;;;;;;41.88;22.45;;;;;;;4.36;66.12;100477.38;694807;28;44029;-63
2020/12/09 00:46:07;;;;;;;43.20;22.45;;;;;;;4.32;66.12;100479.47;695949;28;24314;-63
2020/12/09 00:46:28;;;;;;;42.95;22.50;;;;;;;4.32;66.16;100473.28;695842;28;44352;-63
2020/12/09 00:46:55;;;;;;;40.22;22.50;;;;;;;4.33;66.26;100478.50;691396;28;161918;-63
2020/12/09 00:47:17;;;;;;;37.95;22.00;;;;;;;4.36;66.20;100480.06;696566;28;46437;-62
2020/12/09 00:47:39;;;;;;;40.85;22.65;;;;;;;4.35;66.13;100480.19;697868;28;47464;-62
2020/12/09 00:48:00;;;;;;;42.45;22.52;;;;;;;4.33;66.14;100477.66;696224;28;46383;-62
2020/12/09 00:48:22;;;;;;;39.63;21.63;;;;;;;4.32;66.15;100482.16;698094;28;22402;-62
2020/12/09 00:48:44;;;;;;;40.22;21.88;;;;;;;4.33;66.22;100481.16;698591;28;45277;-62
2020/12/09 00:49:06;;;;;;;42.75;22.58;;;;;;;4.35;66.12;100485.53;696236;28;44343;-63
2020/12/09 00:49:31;;;;;;;40.50;21.48;;;;;;;4.36;66.11;100484.53;693187;28;115355;-62
2020/12/09 00:50:33;;;;;;;42.20;22.17;;;;;;;4.35;66.20;100483.69;691893;28;160633;-63
2020/12/09 00:51:00;;;;;;;41.70;22.33;;;;;;;4.37;66.29;100486.22;693952;28;136180;-60
2020/12/09 00:51:24;;;;;;;44.35;23.42;;;;;;;4.35;66.34;100477.53;695320;28;92243;-62
2020/12/09 00:51:46;;;;;;;43.47;23.77;;;;;;;4.32;66.16;100484.00;692291;28;67474;-62
2020/12/09 00:52:08;;;;;;;41.53;21.52;;;;;;;4.34;66.21;100479.31;694646;28;45296;-61
2020/12/09 00:52:31;;;;;;;41.55;21.85;;;;;;;4.34;66.10;100484.69;696148;28;1125;-62
2020/12/09 00:52:52;;;;;;;41.03;22.05;;;;;;;4.35;66.19;100478.34;689824;28;93195;-61
2020/12/09 00:53:16;;;;;;;41.78;22.02;;;;;;;4.35;66.04;100477.53;689406;28;69508;-59
2020/12/09 00:53:37;;;;;;;40.80;21.52;;;;;;;4.36;66.25;100482.72;691703;28;46407;-62
2020/12/09 00:53:59;;;;;;;43.05;21.98;;;;;;;4.38;66.30;100485.25;694984;28;22447;-63
2020/12/09 00:54:25;;;;;;;39.50;21.40;;;;;;;4.37;66.21;100480.88;692162;28;138181;-63
2020/12/09 00:54:46;;;;;;;41.85;22.27;;;;;;;4.36;66.25;100480.06;694546;28;22394;-62
2020/12/09 00:55:08;;;;;;;42.72;22.30;;;;;;;4.38;66.25;100479.91;696253;28;44278;-62
2020/12/09 00:55:29;;;;;;;44.13;22.10;;;;;;;4.38;66.16;100482.59;693995;28;45243;-62
2020/12/09 00:55:51;;;;;;;41.28;22.10;;;;;;;4.37;66.13;100486.22;694783;28;22411;-62
2020/12/09 00:56:13;;;;;;;42.80;22.27;;;;;;;4.37;66.15;100486.22;693720;28;46320;-62
2020/12/09 00:56:34;;;;;;;41.40;21.90;;;;;;;4.37;66.04;100488.91;694541;28;21838;-62
2020/12/09 00:57:02;;;;;;;41.97;23.23;;;;;;;4.36;66.17;100482.72;691338;28;137752;-63
2020/12/09 00:57:23;;;;;;;41.47;23.07;;;;;;;4.38;66.11;100485.25;695222;28;22491;-61
2020/12/09 00:57:45;;;;;;;42.13;22.13;;;;;;;4.38;66.15;100488.75;696319;28;39762;-63
2020/12/09 00:58:08;;;;;;;41.00;22.55;;;;;;;4.39;66.28;100489.59;694049;28;90485;-63
2020/12/09 00:58:30;;;;;;;41.60;21.95;;;;;;;4.39;66.15;100489.59;695370;28;44366;-62
2020/12/09 00:58:52;;;;;;;42.30;22.55;;;;;;;4.37;66.19;100491.59;696663;28;22409;-63
2020/12/09 00:59:14;;;;;;;41.60;21.88;;;;;;;4.37;66.15;100484.41;692677;28;69388;-63
2020/12/09 00:59:36;;;;;;;39.92;22.23;;;;;;;4.37;66.01;100494.25;691757;28;12080;-63
2020/12/09 00:59:57;;;;;;;43.25;22.48;;;;;;;4.37;66.01;100480.88;691165;28;45365;-63
2020/12/09 01:00:19;;;;;;;44.72;23.48;;;;;;;4.36;66.20;100487.22;694236;28;44359;-63
2020/12/09 01:00:47;;;;;;;40.20;21.77;;;;;;;4.35;66.20;100482.88;690798;28;160864;-63
2020/12/09 01:01:18;;;;;;;41.80;22.40;;;;;;;4.38;66.24;100490.59;690588;28;151767;-63
2020/12/09 01:01:46;;;;;;;42.03;22.65;;;;;;;4.36;66.29;100487.22;693059;28;138526;-63
2020/12/09 01:02:14;;;;;;;44.75;22.92;;;;;;;4.34;66.26;100487.34;694552;28;129573;-63
2020/12/09 01:02:36;;;;;;;42.80;22.50;;;;;;;4.33;66.29;100481.16;697511;28;38238;-62
2020/12/09 01:02:57;;;;;;;41.92;22.20;;;;;;;4.36;66.32;100484.53;696809;28;36187;-63
2020/12/09 01:03:18;;;;;;;42.05;22.23;;;;;;;4.33;66.43;100486.53;697538;28;19115;-63
2020/12/09 01:03:40;;;;;;;44.45;22.40;;;;;;;4.35;66.38;100485.53;696934;28;21460;-62
2020/12/09 01:04:02;;;;;;;47.70;22.65;;;;;;;4.35;66.30;100490.88;696498;28;46328;-63
2020/12/09 01:04:23;;;;;;;42.08;22.33;;;;;;;4.33;66.31;100486.53;699188;28;46392;-62
2020/12/09 01:04:49;;;;;;;43.08;21.92;;;;;;;4.35;66.32;100488.22;702342;28;22736;-61
2020/12/09 01:05:11;;;;;;;43.67;22.42;;;;;;;4.36;66.44;100488.06;698179;28;138273;-63
2020/12/09 01:05:34;;;;;;;39.72;22.05;;;;;;;4.38;66.40;100491.44;702723;28;46294;-63
2020/12/09 01:05:55;;;;;;;41.92;22.38;;;;;;;4.38;66.25;100487.94;699656;28;69389;-60
2020/12/09 01:06:16;;;;;;;45.33;22.67;;;;;;;4.39;66.40;100487.78;701384;28;23397;-63
2020/12/09 01:06:38;;;;;;;41.97;22.15;;;;;;;4.40;66.59;100493.97;701208;28;22307;-61
2020/12/09 01:06:59;;;;;;;41.10;21.92;;;;;;;4.40;66.32;100494.81;700540;28;46062;-63
2020/12/09 01:07:20;;;;;;;42.65;22.38;;;;;;;4.40;66.26;100491.28;701346;28;22338;-61
2020/12/09 01:07:43;;;;;;;42.97;22.92;;;;;;;4.40;66.31;100489.44;700827;28;15864;-63
2020/12/09 01:08:04;;;;;;;44.03;22.02;;;;;;;4.42;66.31;100489.31;701027;28;46468;-62
2020/12/09 01:08:25;;;;;;;39.13;22.00;;;;;;;4.41;66.29;100495.66;701314;28;44392;-63
2020/12/09 01:08:47;;;;;;;41.95;22.40;;;;;;;4.40;66.22;100492.13;703660;28;22395;-63
2020/12/09 01:09:08;;;;;;;41.38;22.80;;;;;;;4.42;66.36;100491.97;702524;28;22409;-63
2020/12/09 01:09:29;;;;;;;38.78;22.05;;;;;;;4.42;66.26;100495.53;701014;28;46329;-62
2020/12/09 01:09:51;;;;;;;38.45;22.13;;;;;;;4.44;66.27;100490.03;703792;28;19231;-63
2020/12/09 01:10:12;;;;;;;38.92;22.15;;;;;;;4.44;66.25;100498.06;702509;28;45225;-63
2020/12/09 01:10:33;;;;;;;40.25;21.65;;;;;;;4.43;66.18;100491.00;702238;28;22525;-62
2020/12/09 01:10:55;;;;;;;41.78;22.58;;;;;;;4.44;66.25;100493.53;703008;28;22607;-61
2020/12/09 01:11:18;;;;;;;42.45;22.77;;;;;;;4.44;66.16;100496.22;701351;28;46191;-62
2020/12/09 01:11:39;;;;;;;43.78;22.38;;;;;;;4.45;66.27;100489.91;700875;28;67471;-62
2020/12/09 01:12:00;;;;;;;41.97;22.48;;;;;;;4.45;66.12;100495.25;703155;28;1253;-60
2020/12/09 01:12:21;;;;;;;43.00;22.50;;;;;;;4.44;66.18;100490.88;702137;28;22393;-63
2020/12/09 01:12:43;;;;;;;46.83;23.75;;;;;;;4.45;66.28;100489.03;703111;28;21547;-62
2020/12/09 01:13:04;;;;;;;44.53;22.80;;;;;;;4.45;66.16;100489.03;700607;28;44941;-61
2020/12/09 01:13:26;;;;;;;41.58;22.25;;;;;;;4.46;66.33;100498.75;702861;28;22799;-62
2020/12/09 01:13:48;;;;;;;38.15;22.23;;;;;;;4.45;66.56;100486.34;702071;28;45105;-63
2020/12/09 01:14:09;;;;;;;43.03;22.38;;;;;;;4.46;66.34;100493.41;703127;28;44163;-63
2020/12/09 01:14:31;;;;;;;46.70;23.13;;;;;;;4.46;66.23;100493.41;701665;28;22304;-62
2020/12/09 01:14:52;;;;;;;46.55;22.60;;;;;;;4.47;66.37;100500.44;701943;28;44362;-63
2020/12/09 01:15:13;;;;;;;46.42;23.20;;;;;;;4.47;66.34;100495.09;703095;28;22318;-62
2020/12/09 01:15:34;;;;;;;42.38;22.95;;;;;;;4.47;66.30;100495.09;701666;28;22079;-63
2020/12/09 01:15:56;;;;;;;40.13;22.08;;;;;;;4.46;66.23;100496.06;704037;28;23712;-62
2020/12/09 01:16:17;;;;;;;43.00;22.33;;;;;;;4.46;66.38;100494.22;702318;28;44380;-61
2020/12/09 01:16:39;;;;;;;46.42;22.52;;;;;;;4.45;66.38;100495.25;699025;28;21536;-62
2020/12/09 01:17:00;;;;;;;44.60;22.38;;;;;;;4.46;66.26;100494.22;698876;28;45367;-62
2020/12/09 01:17:21;;;;;;;43.13;22.88;;;;;;;4.46;66.34;100491.56;699607;28;22230;-60
2020/12/09 01:17:43;;;;;;;42.67;22.37;;;;;;;4.45;66.30;100495.25;699031;28;23525;-63
2020/12/09 01:18:04;;;;;;;43.65;23.20;;;;;;;4.45;66.34;100492.56;696851;28;44430;-63
2020/12/09 01:18:25;;;;;;;41.38;22.80;;;;;;;4.47;66.52;100495.94;700564;28;21518;-63
2020/12/09 01:18:48;;;;;;;41.35;22.50;;;;;;;4.45;66.50;100495.25;702548;28;22374;-63
2020/12/09 01:19:09;;;;;;;44.38;22.45;;;;;;;4.40;66.57;100492.13;701449;28;67307;-63
2020/12/09 01:19:30;;;;;;;43.38;22.63;;;;;;;4.42;66.67;100494.66;703460;28;21549;-62
2020/12/09 01:19:52;;;;;;;39.97;22.13;;;;;;;4.42;66.79;100494.66;703009;28;22397;-62
2020/12/09 01:20:13;;;;;;;43.42;22.80;;;;;;;4.41;66.71;100493.81;701908;28;46178;-63
2020/12/09 01:20:35;;;;;;;44.55;22.50;;;;;;;4.40;66.77;100491.28;702540;28;23535;-62
2020/12/09 01:20:57;;;;;;;42.00;22.58;;;;;;;4.40;66.74;100494.81;702473;28;46253;-63
2020/12/09 01:21:26;;;;;;;40.15;22.38;;;;;;;4.42;66.82;100497.34;701885;28;46588;-62
2020/12/09 01:21:48;;;;;;;43.70;22.75;;;;;;;4.41;66.81;100498.34;697307;28;137851;-63
2020/12/09 01:22:10;;;;;;;40.97;22.08;;;;;;;4.41;66.87;100493.81;700537;28;46911;-63
2020/12/09 01:22:31;;;;;;;40.75;22.50;;;;;;;4.42;66.64;100494.66;700568;28;46265;-62
2020/12/09 01:22:53;;;;;;;40.05;22.27;;;;;;;4.42;66.81;100491.97;700479;28;46347;-63
2020/12/09 01:23:15;;;;;;;43.63;22.38;;;;;;;4.43;66.86;100491.00;701016;28;22393;-63
2020/12/09 01:23:36;;;;;;;43.65;23.02;;;;;;;4.43;66.81;100491.84;700483;28;45993;-62
2020/12/09 01:23:57;;;;;;;41.67;22.95;;;;;;;4.42;66.88;100487.50;701401;28;22350;-62
2020/12/09 01:24:19;;;;;;;42.90;22.88;;;;;;;4.43;66.86;100485.66;702317;28;21565;-62
2020/12/09 01:24:40;;;;;;;46.13;22.45;;;;;;;4.43;66.88;100485.66;701961;28;44199;-62
2020/12/09 01:25:02;;;;;;;46.70;23.15;;;;;;;4.43;66.87;100483.81;702576;28;22473;-63
2020/12/09 01:25:24;;;;;;;46.58;23.38;;;;;;;4.44;67.15;100477.50;701901;28;46415;-63
2020/12/09 01:25:45;;;;;;;42.83;23.48;;;;;;;4.45;66.94;100484.53;701767;28;46331;-61
2020/12/09 01:26:09;;;;;;;43.30;23.10;;;;;;;4.47;66.93;100485.22;702765;28;21559;-62
2020/12/09 01:26:31;;;;;;;43.00;22.58;;;;;;;4.48;66.84;100486.94;698825;28;92316;-63
2020/12/09 01:26:52;;;;;;;40.53;23.15;;;;;;;4.48;66.97;100488.75;702550;28;12457;-63
2020/12/09 01:27:14;;;;;;;42.83;22.60;;;;;;;4.47;67.00;100479.06;703494;28;22423;-62
2020/12/09 01:27:35;;;;;;;42.00;23.05;;;;;;;4.45;67.09;100486.34;700198;28;45230;-62
2020/12/09 01:27:58;;;;;;;39.25;22.42;;;;;;;4.44;67.23;100493.53;703317;28;23525;-62
2020/12/09 01:28:20;;;;;;;40.88;22.88;;;;;;;4.46;67.13;100488.06;700697;28;67493;-63
2020/12/09 01:28:41;;;;;;;43.30;23.13;;;;;;;4.45;67.19;100489.03;701752;28;46441;-62
2020/12/09 01:29:02;;;;;;;41.00;22.70;;;;;;;4.44;67.25;100490.03;702505;28;24352;-61
2020/12/09 01:29:24;;;;;;;44.92;22.77;;;;;;;4.45;67.19;100486.34;702245;28;46383;-62
2020/12/09 01:29:45;;;;;;;42.67;22.92;;;;;;;4.45;67.17;100489.03;702705;28;16703;-62
2020/12/09 01:30:07;;;;;;;40.03;21.75;;;;;;;4.45;67.29;100489.03;702480;28;22418;-63
2020/12/09 01:30:29;;;;;;;45.63;22.80;;;;;;;4.46;67.34;100490.72;701794;28;47322;-62
2020/12/09 01:30:50;;;;;;;45.42;23.02;;;;;;;4.45;67.44;100497.91;701463;28;45283;-62
2020/12/09 01:31:11;;;;;;;45.08;22.77;;;;;;;4.46;67.46;100496.91;702352;28;22414;-63
2020/12/09 01:31:33;;;;;;;42.25;22.85;;;;;;;4.46;67.47;100485.38;703045;28;22269;-62
2020/12/09 01:31:58;;;;;;;39.88;22.98;;;;;;;4.46;67.41;100488.06;702404;28;33772;-63
2020/12/09 01:32:19;;;;;;;45.30;22.60;;;;;;;4.46;67.56;100490.72;699418;28;114005;-63
2020/12/09 01:32:40;;;;;;;44.30;22.55;;;;;;;4.44;67.61;100484.69;701998;28;21658;-62
2020/12/09 01:33:02;;;;;;;44.10;23.25;;;;;;;4.42;67.70;100484.81;701786;28;23516;-63
2020/12/09 01:33:23;;;;;;;40.92;22.25;;;;;;;4.43;67.59;100480.31;701659;28;46412;-63
2020/12/09 01:33:44;;;;;;;43.15;22.55;;;;;;;4.44;67.58;100479.34;701459;28;23499;-63
2020/12/09 01:34:06;;;;;;;41.63;22.35;;;;;;;4.44;67.71;100482.00;698837;28;46267;-63
2020/12/09 01:34:28;;;;;;;45.67;23.63;;;;;;;4.44;67.59;100482.84;699420;28;20904;-63
2020/12/09 01:34:49;;;;;;;44.65;23.10;;;;;;;4.44;67.70;100482.84;698767;28;45302;-62
2020/12/09 01:35:11;;;;;;;42.55;22.52;;;;;;;4.43;67.73;100489.16;700094;28;23520;-62
2020/12/09 01:35:32;;;;;;;44.85;23.35;;;;;;;4.45;67.73;100483.69;699243;28;40728;-63
2020/12/09 01:35:54;;;;;;;43.00;23.20;;;;;;;4.45;67.73;100479.19;700054;28;19399;-63
2020/12/09 01:36:20;;;;;;;42.42;22.60;;;;;;;4.46;67.77;100482.69;700916;28;67522;-62
2020/12/09 01:36:43;;;;;;;43.00;23.00;;;;;;;4.46;67.79;100480.03;699720;28;60658;-62
2020/12/09 01:37:04;;;;;;;40.50;22.90;;;;;;;4.43;67.88;100488.34;701893;28;21495;-62
2020/12/09 01:37:26;;;;;;;40.70;22.23;;;;;;;4.42;67.82;100483.97;701356;28;44332;-62
2020/12/09 01:37:52;;;;;;;42.40;22.00;;;;;;;4.39;67.84;100485.13;700997;28;59163;-63
2020/12/09 01:38:14;;;;;;;40.58;22.20;;;;;;;4.38;68.09;100490.59;702270;28;933;-62
2020/12/09 01:38:35;;;;;;;40.65;22.15;;;;;;;4.38;68.06;100482.59;701781;28;22561;-62
2020/12/09 01:38:57;;;;;;;42.58;22.33;;;;;;;4.38;67.90;100486.09;703634;28;845;-61
2020/12/09 01:39:19;;;;;;;43.08;23.00;;;;;;;4.39;68.04;100487.78;701596;28;44408;-63
2020/12/09 01:39:41;;;;;;;44.03;23.42;;;;;;;4.39;68.13;100489.59;702740;28;21559;-62
2020/12/09 01:40:02;;;;;;;44.10;22.95;;;;;;;4.38;68.24;100482.59;701962;28;44388;-62
2020/12/09 01:40:25;;;;;;;44.58;23.27;;;;;;;4.40;68.12;100488.63;703352;28;965;-62
2020/12/09 01:40:55;;;;;;;42.78;22.83;;;;;;;4.37;68.16;100487.06;701075;28;61702;-62
2020/12/09 01:41:17;;;;;;;44.13;24.23;;;;;;;4.36;68.28;100479.19;698776;28;115961;-63
2020/12/09 01:41:39;;;;;;;43.35;23.65;;;;;;;4.37;68.33;100483.56;703448;28;889;-63
2020/12/09 01:42:00;;;;;;;45.08;22.92;;;;;;;4.37;68.25;100487.06;702120;28;23014;-63
2020/12/09 01:42:22;;;;;;;42.92;22.17;;;;;;;4.38;68.29;100483.41;702565;28;46334;-62
2020/12/09 01:42:43;;;;;;;42.65;22.65;;;;;;;4.39;68.27;100482.44;702077;28;20619;-62